sensor_id;sensor_type;location;lat;lon;timestamp;temperature;humidity
45044;DHT22;30784;48.490;9.688;2023-07-28T00:00:06;19.60;58.30
45044;DHT22;30784;48.490;9.688;2023-07-28T00:02:32;19.60;58.30
45044;DHT22;30784;48.490;9.688;2023-07-28T00:04:57;19.60;58.30
45044;DHT22;30784;48.490;9.688;2023-07-28T00:07:23;19.60;58.30
45044;DHT22;30784;48.490;9.688;2023-07-28T00:09:48;19.60;58.40
45044;DHT22;30784;48.490;9.688;2023-07-28T00:12:14;19.60;58.40
45044;DHT22;30784;48.490;9.688;2023-07-28T00:14:39;19.60;58.40
45044;DHT22;30784;48.490;9.688;2023-07-28T00:20:27;19.50;58.20
45044;DHT22;30784;48.490;9.688;2023-07-28T00:22:53;19.50;58.50
45044;DHT22;30784;48.490;9.688;2023-07-28T00:25:19;19.50;58.50
45044;DHT22;30784;48.490;9.688;2023-07-28T00:27:44;19.40;58.60
45044;DHT22;30784;48.490;9.688;2023-07-28T00:30:10;19.40;58.70
45044;DHT22;30784;48.490;9.688;2023-07-28T00:32:36;19.40;58.70
45044;DHT22;30784;48.490;9.688;2023-07-28T00:35:02;19.40;58.80
45044;DHT22;30784;48.490;9.688;2023-07-28T00:37:28;19.30;58.90
45044;DHT22;30784;48.490;9.688;2023-07-28T00:39:53;19.30;58.90
45044;DHT22;30784;48.490;9.688;2023-07-28T00:42:19;19.30;59.00
45044;DHT22;30784;48.490;9.688;2023-07-28T00:44:44;19.30;59.10
45044;DHT22;30784;48.490;9.688;2023-07-28T00:47:10;19.30;59.10
45044;DHT22;30784;48.490;9.688;2023-07-28T00:49:36;19.20;59.20
45044;DHT22;30784;48.490;9.688;2023-07-28T00:52:03;19.20;59.30
45044;DHT22;30784;48.490;9.688;2023-07-28T00:54:29;19.20;59.40
45044;DHT22;30784;48.490;9.688;2023-07-28T00:56:55;19.20;59.40
45044;DHT22;30784;48.490;9.688;2023-07-28T00:59:21;19.20;59.50
45044;DHT22;30784;48.490;9.688;2023-07-28T01:01:46;19.20;59.50
45044;DHT22;30784;48.490;9.688;2023-07-28T01:04:12;19.20;59.60
45044;DHT22;30784;48.490;9.688;2023-07-28T01:06:44;19.10;59.60
45044;DHT22;30784;48.490;9.688;2023-07-28T01:09:16;19.10;59.70
45044;DHT22;30784;48.490;9.688;2023-07-28T01:11:56;19.10;59.70
45044;DHT22;30784;48.490;9.688;2023-07-28T01:14:22;19.10;59.60
45044;DHT22;30784;48.490;9.688;2023-07-28T01:16:47;19.10;59.90
45044;DHT22;30784;48.490;9.688;2023-07-28T01:19:18;19.10;60.00
45044;DHT22;30784;48.490;9.688;2023-07-28T01:22:03;19.10;60.00
45044;DHT22;30784;48.490;9.688;2023-07-28T01:27:29;19.00;59.80
45044;DHT22;30784;48.490;9.688;2023-07-28T01:29:54;19.00;60.20
45044;DHT22;30784;48.490;9.688;2023-07-28T01:32:20;19.00;60.40
45044;DHT22;30784;48.490;9.688;2023-07-28T01:34:45;18.90;60.30
45044;DHT22;30784;48.490;9.688;2023-07-28T01:37:11;18.90;60.60
45044;DHT22;30784;48.490;9.688;2023-07-28T01:39:36;19.00;60.60
45044;DHT22;30784;48.490;9.688;2023-07-28T01:42:02;18.90;60.60
45044;DHT22;30784;48.490;9.688;2023-07-28T01:44:28;18.90;60.70
45044;DHT22;30784;48.490;9.688;2023-07-28T01:46:53;18.90;60.70
45044;DHT22;30784;48.490;9.688;2023-07-28T01:49:19;18.90;60.50
45044;DHT22;30784;48.490;9.688;2023-07-28T01:51:44;18.90;61.10
45044;DHT22;30784;48.490;9.688;2023-07-28T01:54:10;18.90;60.50
45044;DHT22;30784;48.490;9.688;2023-07-28T01:56:36;18.90;60.60
45044;DHT22;30784;48.490;9.688;2023-07-28T01:59:01;18.90;60.60
45044;DHT22;30784;48.490;9.688;2023-07-28T02:01:27;18.90;60.60
45044;DHT22;30784;48.490;9.688;2023-07-28T02:03:52;18.90;60.60
45044;DHT22;30784;48.490;9.688;2023-07-28T02:06:18;18.90;60.50
45044;DHT22;30784;48.490;9.688;2023-07-28T02:08:43;18.90;60.50
45044;DHT22;30784;48.490;9.688;2023-07-28T02:11:09;18.90;60.40
45044;DHT22;30784;48.490;9.688;2023-07-28T02:13:35;18.90;60.50
45044;DHT22;30784;48.490;9.688;2023-07-28T02:16:00;18.90;61.10
45044;DHT22;30784;48.490;9.688;2023-07-28T02:18:26;18.90;60.60
45044;DHT22;30784;48.490;9.688;2023-07-28T02:20:51;18.80;60.70
45044;DHT22;30784;48.490;9.688;2023-07-28T02:23:17;18.80;60.70
45044;DHT22;30784;48.490;9.688;2023-07-28T02:25:42;18.80;60.80
45044;DHT22;30784;48.490;9.688;2023-07-28T02:28:10;18.80;60.90
45044;DHT22;30784;48.490;9.688;2023-07-28T02:30:36;18.80;60.80
45044;DHT22;30784;48.490;9.688;2023-07-28T02:33:01;18.80;60.90
45044;DHT22;30784;48.490;9.688;2023-07-28T02:35:27;18.70;60.90
45044;DHT22;30784;48.490;9.688;2023-07-28T02:37:52;18.70;61.00
45044;DHT22;30784;48.490;9.688;2023-07-28T02:40:18;18.70;61.00
45044;DHT22;30784;48.490;9.688;2023-07-28T02:42:43;18.70;61.10
45044;DHT22;30784;48.490;9.688;2023-07-28T02:45:09;18.70;61.20
45044;DHT22;30784;48.490;9.688;2023-07-28T02:47:35;18.70;61.20
45044;DHT22;30784;48.490;9.688;2023-07-28T02:50:01;18.60;61.10
45044;DHT22;30784;48.490;9.688;2023-07-28T02:52:26;18.50;61.20
45044;DHT22;30784;48.490;9.688;2023-07-28T02:54:52;18.60;61.20
45044;DHT22;30784;48.490;9.688;2023-07-28T02:57:18;18.50;61.20
45044;DHT22;30784;48.490;9.688;2023-07-28T02:59:43;18.60;61.20
45044;DHT22;30784;48.490;9.688;2023-07-28T03:02:08;18.50;61.20
45044;DHT22;30784;48.490;9.688;2023-07-28T03:04:34;18.50;61.20
45044;DHT22;30784;48.490;9.688;2023-07-28T03:06:59;18.40;61.20
45044;DHT22;30784;48.490;9.688;2023-07-28T03:09:25;18.40;61.40
45044;DHT22;30784;48.490;9.688;2023-07-28T03:11:51;18.40;61.40
45044;DHT22;30784;48.490;9.688;2023-07-28T03:14:16;18.30;61.50
45044;DHT22;30784;48.490;9.688;2023-07-28T03:16:42;18.30;61.60
45044;DHT22;30784;48.490;9.688;2023-07-28T03:19:08;18.30;61.60
45044;DHT22;30784;48.490;9.688;2023-07-28T03:21:33;18.30;61.80
45044;DHT22;30784;48.490;9.688;2023-07-28T03:23:59;18.20;61.90
45044;DHT22;30784;48.490;9.688;2023-07-28T03:29:46;18.20;61.80
45044;DHT22;30784;48.490;9.688;2023-07-28T03:32:11;18.10;61.90
45044;DHT22;30784;48.490;9.688;2023-07-28T03:34:37;18.10;62.00
45044;DHT22;30784;48.490;9.688;2023-07-28T03:37:02;18.10;62.30
45044;DHT22;30784;48.490;9.688;2023-07-28T03:39:28;18.10;62.40
45044;DHT22;30784;48.490;9.688;2023-07-28T03:41:55;18.10;62.70
45044;DHT22;30784;48.490;9.688;2023-07-28T03:44:20;18.00;62.90
45044;DHT22;30784;48.490;9.688;2023-07-28T03:46:46;18.00;62.90
45044;DHT22;30784;48.490;9.688;2023-07-28T03:49:12;18.00;63.10
45044;DHT22;30784;48.490;9.688;2023-07-28T03:51:37;18.00;63.40
45044;DHT22;30784;48.490;9.688;2023-07-28T03:54:03;18.00;63.20
45044;DHT22;30784;48.490;9.688;2023-07-28T03:56:28;18.00;63.50
45044;DHT22;30784;48.490;9.688;2023-07-28T03:58:54;18.00;63.60
45044;DHT22;30784;48.490;9.688;2023-07-28T04:01:20;18.00;63.60
45044;DHT22;30784;48.490;9.688;2023-07-28T04:03:47;18.00;63.80
45044;DHT22;30784;48.490;9.688;2023-07-28T04:06:13;18.00;63.90
45044;DHT22;30784;48.490;9.688;2023-07-28T04:08:41;18.00;64.10
45044;DHT22;30784;48.490;9.688;2023-07-28T04:11:07;18.00;64.10
45044;DHT22;30784;48.490;9.688;2023-07-28T04:13:33;18.10;64.00
45044;DHT22;30784;48.490;9.688;2023-07-28T04:15:59;18.10;64.30
45044;DHT22;30784;48.490;9.688;2023-07-28T04:18:24;18.10;64.50
45044;DHT22;30784;48.490;9.688;2023-07-28T04:20:50;18.10;64.50
45044;DHT22;30784;48.490;9.688;2023-07-28T04:23:15;18.10;64.40
45044;DHT22;30784;48.490;9.688;2023-07-28T04:25:41;18.20;64.40
45044;DHT22;30784;48.490;9.688;2023-07-28T04:28:06;18.20;64.60
45044;DHT22;30784;48.490;9.688;2023-07-28T04:30:32;18.20;64.60
45044;DHT22;30784;48.490;9.688;2023-07-28T04:32:57;18.20;64.60
45044;DHT22;30784;48.490;9.688;2023-07-28T04:35:23;18.30;64.60
45044;DHT22;30784;48.490;9.688;2023-07-28T04:37:48;18.30;64.50
45044;DHT22;30784;48.490;9.688;2023-07-28T04:40:14;18.30;64.40
45044;DHT22;30784;48.490;9.688;2023-07-28T04:42:40;18.40;64.50
45044;DHT22;30784;48.490;9.688;2023-07-28T04:45:06;18.40;64.40
45044;DHT22;30784;48.490;9.688;2023-07-28T04:47:31;18.40;64.40
45044;DHT22;30784;48.490;9.688;2023-07-28T04:49:57;18.50;64.50
45044;DHT22;30784;48.490;9.688;2023-07-28T04:52:23;18.50;64.40
45044;DHT22;30784;48.490;9.688;2023-07-28T04:54:49;18.50;64.40
45044;DHT22;30784;48.490;9.688;2023-07-28T04:57:14;18.50;64.40
45044;DHT22;30784;48.490;9.688;2023-07-28T04:59:40;18.60;64.50
45044;DHT22;30784;48.490;9.688;2023-07-28T05:02:06;18.60;64.50
45044;DHT22;30784;48.490;9.688;2023-07-28T05:04:31;18.60;64.40
45044;DHT22;30784;48.490;9.688;2023-07-28T05:06:57;18.70;64.50
45044;DHT22;30784;48.490;9.688;2023-07-28T05:09:22;18.70;64.50
45044;DHT22;30784;48.490;9.688;2023-07-28T05:11:48;18.70;64.50
45044;DHT22;30784;48.490;9.688;2023-07-28T05:14:13;18.80;64.60
45044;DHT22;30784;48.490;9.688;2023-07-28T05:16:39;18.80;64.50
45044;DHT22;30784;48.490;9.688;2023-07-28T05:19:07;18.90;64.60
45044;DHT22;30784;48.490;9.688;2023-07-28T05:21:33;18.90;64.50
45044;DHT22;30784;48.490;9.688;2023-07-28T05:23:58;18.90;64.40
45044;DHT22;30784;48.490;9.688;2023-07-28T05:26:24;19.00;64.50
45044;DHT22;30784;48.490;9.688;2023-07-28T05:28:49;19.00;64.40
45044;DHT22;30784;48.490;9.688;2023-07-28T05:31:16;19.10;64.40
45044;DHT22;30784;48.490;9.688;2023-07-28T05:33:41;19.10;64.30
45044;DHT22;30784;48.490;9.688;2023-07-28T05:36:07;19.20;64.30
45044;DHT22;30784;48.490;9.688;2023-07-28T05:38:33;19.20;64.30
45044;DHT22;30784;48.490;9.688;2023-07-28T05:40:59;19.30;64.30
45044;DHT22;30784;48.490;9.688;2023-07-28T05:43:29;19.30;64.20
45044;DHT22;30784;48.490;9.688;2023-07-28T05:45:56;19.40;64.10
45044;DHT22;30784;48.490;9.688;2023-07-28T05:48:21;19.40;64.00
45044;DHT22;30784;48.490;9.688;2023-07-28T05:50:47;19.40;64.00
45044;DHT22;30784;48.490;9.688;2023-07-28T05:53:13;19.50;64.00
45044;DHT22;30784;48.490;9.688;2023-07-28T05:55:39;19.50;63.90
45044;DHT22;30784;48.490;9.688;2023-07-28T05:58:05;19.50;63.80
45044;DHT22;30784;48.490;9.688;2023-07-28T06:00:31;19.60;63.80
45044;DHT22;30784;48.490;9.688;2023-07-28T06:02:57;19.60;63.70
45044;DHT22;30784;48.490;9.688;2023-07-28T06:05:22;19.70;63.60
45044;DHT22;30784;48.490;9.688;2023-07-28T06:07:48;19.70;63.60
45044;DHT22;30784;48.490;9.688;2023-07-28T06:10:14;19.70;63.50
45044;DHT22;30784;48.490;9.688;2023-07-28T06:12:39;19.70;63.50
45044;DHT22;30784;48.490;9.688;2023-07-28T06:15:06;19.70;63.50
45044;DHT22;30784;48.490;9.688;2023-07-28T06:17:31;19.80;63.60
45044;DHT22;30784;48.490;9.688;2023-07-28T06:19:58;19.80;63.60
45044;DHT22;30784;48.490;9.688;2023-07-28T06:22:24;19.80;63.70
45044;DHT22;30784;48.490;9.688;2023-07-28T06:24:50;19.80;63.70
45044;DHT22;30784;48.490;9.688;2023-07-28T06:27:15;19.80;63.70
45044;DHT22;30784;48.490;9.688;2023-07-28T06:29:41;19.90;63.80
45044;DHT22;30784;48.490;9.688;2023-07-28T06:32:07;19.90;63.80
45044;DHT22;30784;48.490;9.688;2023-07-28T06:34:33;19.90;63.90
45044;DHT22;30784;48.490;9.688;2023-07-28T06:36:58;19.80;63.80
45044;DHT22;30784;48.490;9.688;2023-07-28T06:39:24;19.90;64.00
45044;DHT22;30784;48.490;9.688;2023-07-28T06:41:50;19.90;64.00
45044;DHT22;30784;48.490;9.688;2023-07-28T06:44:16;19.90;64.10
45044;DHT22;30784;48.490;9.688;2023-07-28T06:46:41;19.90;64.10
45044;DHT22;30784;48.490;9.688;2023-07-28T06:49:07;19.90;64.20
45044;DHT22;30784;48.490;9.688;2023-07-28T06:51:32;19.90;64.20
45044;DHT22;30784;48.490;9.688;2023-07-28T06:53:59;20.00;64.30
45044;DHT22;30784;48.490;9.688;2023-07-28T06:56:24;20.00;64.30
45044;DHT22;30784;48.490;9.688;2023-07-28T06:58:50;20.00;64.40
45044;DHT22;30784;48.490;9.688;2023-07-28T07:01:15;20.10;64.40
45044;DHT22;30784;48.490;9.688;2023-07-28T07:03:41;20.00;64.40
45044;DHT22;30784;48.490;9.688;2023-07-28T07:06:06;20.10;64.60
45044;DHT22;30784;48.490;9.688;2023-07-28T07:08:32;20.10;64.70
45044;DHT22;30784;48.490;9.688;2023-07-28T07:10:58;20.10;64.70
45044;DHT22;30784;48.490;9.688;2023-07-28T07:13:23;20.10;64.90
45044;DHT22;30784;48.490;9.688;2023-07-28T07:15:49;20.10;64.90
45044;DHT22;30784;48.490;9.688;2023-07-28T07:18:14;20.20;65.00
45044;DHT22;30784;48.490;9.688;2023-07-28T07:20:40;20.20;65.10
45044;DHT22;30784;48.490;9.688;2023-07-28T07:23:06;20.30;65.10
45044;DHT22;30784;48.490;9.688;2023-07-28T07:25:32;20.30;65.00
45044;DHT22;30784;48.490;9.688;2023-07-28T07:27:57;20.30;64.90
45044;DHT22;30784;48.490;9.688;2023-07-28T07:30:23;20.40;64.80
45044;DHT22;30784;48.490;9.688;2023-07-28T07:32:49;20.50;64.80
45044;DHT22;30784;48.490;9.688;2023-07-28T07:35:15;20.40;64.70
45044;DHT22;30784;48.490;9.688;2023-07-28T07:37:40;20.50;64.60
45044;DHT22;30784;48.490;9.688;2023-07-28T07:40:07;20.60;64.60
45044;DHT22;30784;48.490;9.688;2023-07-28T07:42:49;20.60;64.50
45044;DHT22;30784;48.490;9.688;2023-07-28T07:45:15;20.60;64.40
45044;DHT22;30784;48.490;9.688;2023-07-28T07:47:41;20.60;64.50
45044;DHT22;30784;48.490;9.688;2023-07-28T07:50:08;20.70;64.50
45044;DHT22;30784;48.490;9.688;2023-07-28T07:52:37;20.70;64.40
45044;DHT22;30784;48.490;9.688;2023-07-28T07:55:03;20.80;64.50
45044;DHT22;30784;48.490;9.688;2023-07-28T07:57:29;20.80;64.50
45044;DHT22;30784;48.490;9.688;2023-07-28T07:59:56;20.90;64.60
45044;DHT22;30784;48.490;9.688;2023-07-28T08:02:22;21.00;64.70
45044;DHT22;30784;48.490;9.688;2023-07-28T08:04:48;21.10;64.50
45044;DHT22;30784;48.490;9.688;2023-07-28T08:07:13;21.10;64.40
45044;DHT22;30784;48.490;9.688;2023-07-28T08:09:41;21.20;64.40
45044;DHT22;30784;48.490;9.688;2023-07-28T08:12:07;21.30;64.10
45044;DHT22;30784;48.490;9.688;2023-07-28T08:14:33;21.40;64.10
45044;DHT22;30784;48.490;9.688;2023-07-28T08:16:59;21.50;64.00
45044;DHT22;30784;48.490;9.688;2023-07-28T08:19:25;21.60;63.80
45044;DHT22;30784;48.490;9.688;2023-07-28T08:21:50;21.70;63.60
45044;DHT22;30784;48.490;9.688;2023-07-28T08:24:16;21.80;63.40
45044;DHT22;30784;48.490;9.688;2023-07-28T08:26:41;21.90;63.00
45044;DHT22;30784;48.490;9.688;2023-07-28T08:29:07;22.00;62.50
45044;DHT22;30784;48.490;9.688;2023-07-28T08:31:32;22.10;61.80
45044;DHT22;30784;48.490;9.688;2023-07-28T08:33:58;22.10;61.60
45044;DHT22;30784;48.490;9.688;2023-07-28T08:36:23;22.20;61.50
45044;DHT22;30784;48.490;9.688;2023-07-28T08:38:49;22.40;61.30
45044;DHT22;30784;48.490;9.688;2023-07-28T08:41:15;22.40;61.00
45044;DHT22;30784;48.490;9.688;2023-07-28T08:43:40;22.30;60.70
45044;DHT22;30784;48.490;9.688;2023-07-28T08:46:06;22.40;60.50
45044;DHT22;30784;48.490;9.688;2023-07-28T08:48:32;22.40;60.30
45044;DHT22;30784;48.490;9.688;2023-07-28T08:50:58;22.50;60.40
45044;DHT22;30784;48.490;9.688;2023-07-28T08:53:23;22.50;60.30
45044;DHT22;30784;48.490;9.688;2023-07-28T08:55:49;22.60;60.80
45044;DHT22;30784;48.490;9.688;2023-07-28T09:00:41;22.80;59.50
45044;DHT22;30784;48.490;9.688;2023-07-28T09:03:08;22.90;59.60
45044;DHT22;30784;48.490;9.688;2023-07-28T09:05:34;23.00;59.60
45044;DHT22;30784;48.490;9.688;2023-07-28T09:08:01;23.00;59.30
45044;DHT22;30784;48.490;9.688;2023-07-28T09:10:46;23.20;59.30
45044;DHT22;30784;48.490;9.688;2023-07-28T09:13:14;23.20;59.10
45044;DHT22;30784;48.490;9.688;2023-07-28T09:15:40;23.40;58.70
45044;DHT22;30784;48.490;9.688;2023-07-28T09:18:10;23.50;58.30
45044;DHT22;30784;48.490;9.688;2023-07-28T09:20:37;23.50;58.50
45044;DHT22;30784;48.490;9.688;2023-07-28T09:23:04;23.70;58.50
45044;DHT22;30784;48.490;9.688;2023-07-28T09:25:31;23.80;57.80
45044;DHT22;30784;48.490;9.688;2023-07-28T09:27:57;23.90;57.60
45044;DHT22;30784;48.490;9.688;2023-07-28T09:30:24;24.00;57.20
45044;DHT22;30784;48.490;9.688;2023-07-28T09:32:51;24.20;56.80
45044;DHT22;30784;48.490;9.688;2023-07-28T09:35:18;24.30;57.10
45044;DHT22;30784;48.490;9.688;2023-07-28T09:37:49;24.40;56.90
45044;DHT22;30784;48.490;9.688;2023-07-28T09:40:17;24.60;56.60
45044;DHT22;30784;48.490;9.688;2023-07-28T09:42:45;24.70;56.90
45044;DHT22;30784;48.490;9.688;2023-07-28T09:45:15;25.00;55.60
45044;DHT22;30784;48.490;9.688;2023-07-28T09:47:44;25.10;54.60
45044;DHT22;30784;48.490;9.688;2023-07-28T09:50:10;25.30;54.20
45044;DHT22;30784;48.490;9.688;2023-07-28T09:52:42;25.40;53.90
45044;DHT22;30784;48.490;9.688;2023-07-28T09:55:10;25.60;54.30
45044;DHT22;30784;48.490;9.688;2023-07-28T09:57:45;25.70;53.30
45044;DHT22;30784;48.490;9.688;2023-07-28T10:00:13;25.80;53.50
45044;DHT22;30784;48.490;9.688;2023-07-28T10:02:39;26.00;51.90
45044;DHT22;30784;48.490;9.688;2023-07-28T10:05:08;26.10;51.70
45044;DHT22;30784;48.490;9.688;2023-07-28T10:07:38;26.20;50.50
45044;DHT22;30784;48.490;9.688;2023-07-28T10:10:06;26.20;50.10
45044;DHT22;30784;48.490;9.688;2023-07-28T10:12:52;26.20;49.80
45044;DHT22;30784;48.490;9.688;2023-07-28T10:15:19;26.20;50.40
45044;DHT22;30784;48.490;9.688;2023-07-28T10:17:51;26.20;49.30
45044;DHT22;30784;48.490;9.688;2023-07-28T10:20:33;26.20;49.30
45044;DHT22;30784;48.490;9.688;2023-07-28T10:25:34;26.10;49.60
45044;DHT22;30784;48.490;9.688;2023-07-28T10:28:00;26.10;49.60
45044;DHT22;30784;48.490;9.688;2023-07-28T10:30:27;26.10;49.60
45044;DHT22;30784;48.490;9.688;2023-07-28T10:32:55;26.10;49.40
45044;DHT22;30784;48.490;9.688;2023-07-28T10:35:26;26.20;49.90
45044;DHT22;30784;48.490;9.688;2023-07-28T10:37:53;26.20;49.90
45044;DHT22;30784;48.490;9.688;2023-07-28T10:40:35;26.40;50.00
45044;DHT22;30784;48.490;9.688;2023-07-28T10:43:02;26.60;49.90
45044;DHT22;30784;48.490;9.688;2023-07-28T10:45:30;26.80;48.90
45044;DHT22;30784;48.490;9.688;2023-07-28T10:47:57;26.90;48.80
45044;DHT22;30784;48.490;9.688;2023-07-28T10:50:28;27.00;48.30
45044;DHT22;30784;48.490;9.688;2023-07-28T10:52:53;27.10;47.80
45044;DHT22;30784;48.490;9.688;2023-07-28T10:55:28;27.30;47.30
45044;DHT22;30784;48.490;9.688;2023-07-28T10:57:54;27.30;47.40
45044;DHT22;30784;48.490;9.688;2023-07-28T11:00:22;27.30;47.10
45044;DHT22;30784;48.490;9.688;2023-07-28T11:02:49;27.50;47.10
45044;DHT22;30784;48.490;9.688;2023-07-28T11:05:41;27.50;46.70
45044;DHT22;30784;48.490;9.688;2023-07-28T11:08:07;27.60;47.50
45044;DHT22;30784;48.490;9.688;2023-07-28T11:10:33;27.70;46.30
45044;DHT22;30784;48.490;9.688;2023-07-28T11:13:02;27.80;46.50
45044;DHT22;30784;48.490;9.688;2023-07-28T11:15:27;28.00;46.30
45044;DHT22;30784;48.490;9.688;2023-07-28T11:17:53;28.00;46.00
45044;DHT22;30784;48.490;9.688;2023-07-28T11:22:45;28.10;45.70
45044;DHT22;30784;48.490;9.688;2023-07-28T11:25:12;28.10;45.20
45044;DHT22;30784;48.490;9.688;2023-07-28T11:27:38;28.10;45.20
45044;DHT22;30784;48.490;9.688;2023-07-28T11:30:05;28.10;44.80
45044;DHT22;30784;48.490;9.688;2023-07-28T11:32:34;28.10;44.90
45044;DHT22;30784;48.490;9.688;2023-07-28T11:35:06;28.10;44.70
45044;DHT22;30784;48.490;9.688;2023-07-28T11:37:36;28.10;44.60
45044;DHT22;30784;48.490;9.688;2023-07-28T11:40:04;28.00;44.50
45044;DHT22;30784;48.490;9.688;2023-07-28T11:45:29;27.90;44.40
45044;DHT22;30784;48.490;9.688;2023-07-28T11:50:34;27.80;44.70
45044;DHT22;30784;48.490;9.688;2023-07-28T11:53:00;27.90;44.90
45044;DHT22;30784;48.490;9.688;2023-07-28T11:55:26;28.00;44.80
45044;DHT22;30784;48.490;9.688;2023-07-28T11:57:52;28.00;44.30
45044;DHT22;30784;48.490;9.688;2023-07-28T12:00:18;28.00;44.10
45044;DHT22;30784;48.490;9.688;2023-07-28T12:03:06;28.00;44.00
45044;DHT22;30784;48.490;9.688;2023-07-28T12:05:35;28.00;44.40
45044;DHT22;30784;48.490;9.688;2023-07-28T12:08:02;28.00;44.20
45044;DHT22;30784;48.490;9.688;2023-07-28T12:10:29;27.80;45.00
45044;DHT22;30784;48.490;9.688;2023-07-28T12:12:54;27.80;45.10
45044;DHT22;30784;48.490;9.688;2023-07-28T12:15:22;27.60;45.40
45044;DHT22;30784;48.490;9.688;2023-07-28T12:20:34;27.30;45.80
45044;DHT22;30784;48.490;9.688;2023-07-28T12:23:00;27.10;46.30
45044;DHT22;30784;48.490;9.688;2023-07-28T12:25:25;27.00;47.00
45044;DHT22;30784;48.490;9.688;2023-07-28T12:27:51;26.80;47.20
45044;DHT22;30784;48.490;9.688;2023-07-28T12:30:17;26.70;47.10
45044;DHT22;30784;48.490;9.688;2023-07-28T12:32:43;26.50;47.20
45044;DHT22;30784;48.490;9.688;2023-07-28T12:35:08;26.30;47.10
45044;DHT22;30784;48.490;9.688;2023-07-28T12:37:34;26.20;47.50
45044;DHT22;30784;48.490;9.688;2023-07-28T12:39:59;26.10;47.30
45044;DHT22;30784;48.490;9.688;2023-07-28T12:42:26;26.00;47.30
45044;DHT22;30784;48.490;9.688;2023-07-28T12:44:52;25.80;47.50
45044;DHT22;30784;48.490;9.688;2023-07-28T12:47:17;25.70;47.20
45044;DHT22;30784;48.490;9.688;2023-07-28T12:49:43;25.60;47.20
45044;DHT22;30784;48.490;9.688;2023-07-28T12:52:08;25.50;47.40
45044;DHT22;30784;48.490;9.688;2023-07-28T12:54:34;25.30;47.80
45044;DHT22;30784;48.490;9.688;2023-07-28T13:00:22;25.20;47.50
45044;DHT22;30784;48.490;9.688;2023-07-28T13:02:47;25.10;47.80
45044;DHT22;30784;48.490;9.688;2023-07-28T13:05:13;25.00;48.00
45044;DHT22;30784;48.490;9.688;2023-07-28T13:07:40;25.00;48.40
45044;DHT22;30784;48.490;9.688;2023-07-28T13:10:08;24.90;48.40
45044;DHT22;30784;48.490;9.688;2023-07-28T13:12:35;24.90;48.70
45044;DHT22;30784;48.490;9.688;2023-07-28T13:15:01;24.80;48.80
45044;DHT22;30784;48.490;9.688;2023-07-28T13:17:27;24.80;48.90
45044;DHT22;30784;48.490;9.688;2023-07-28T13:19:52;24.80;49.10
45044;DHT22;30784;48.490;9.688;2023-07-28T13:22:18;24.80;49.20
45044;DHT22;30784;48.490;9.688;2023-07-28T13:24:43;24.80;49.50
45044;DHT22;30784;48.490;9.688;2023-07-28T13:27:09;24.80;49.50
45044;DHT22;30784;48.490;9.688;2023-07-28T13:29:35;24.90;49.60
45044;DHT22;30784;48.490;9.688;2023-07-28T13:32:00;24.80;49.40
45044;DHT22;30784;48.490;9.688;2023-07-28T13:34:27;24.80;49.30
45044;DHT22;30784;48.490;9.688;2023-07-28T13:36:53;24.90;49.50
45044;DHT22;30784;48.490;9.688;2023-07-28T13:39:19;24.90;49.60
45044;DHT22;30784;48.490;9.688;2023-07-28T13:41:45;24.90;49.50
45044;DHT22;30784;48.490;9.688;2023-07-28T13:44:10;25.00;49.60
45044;DHT22;30784;48.490;9.688;2023-07-28T13:46:36;25.00;49.50
45044;DHT22;30784;48.490;9.688;2023-07-28T13:49:01;25.00;49.30
45044;DHT22;30784;48.490;9.688;2023-07-28T13:51:27;25.00;49.40
45044;DHT22;30784;48.490;9.688;2023-07-28T13:53:53;25.10;49.50
45044;DHT22;30784;48.490;9.688;2023-07-28T13:56:18;25.10;49.40
45044;DHT22;30784;48.490;9.688;2023-07-28T13:58:44;25.10;49.40
45044;DHT22;30784;48.490;9.688;2023-07-28T14:01:09;25.10;49.50
45044;DHT22;30784;48.490;9.688;2023-07-28T14:03:35;25.10;49.40
45044;DHT22;30784;48.490;9.688;2023-07-28T14:06:00;25.10;49.70
45044;DHT22;30784;48.490;9.688;2023-07-28T14:08:26;25.10;49.60
45044;DHT22;30784;48.490;9.688;2023-07-28T14:10:53;25.10;49.70
45044;DHT22;30784;48.490;9.688;2023-07-28T14:13:18;25.10;49.70
45044;DHT22;30784;48.490;9.688;2023-07-28T14:15:44;25.10;49.80
45044;DHT22;30784;48.490;9.688;2023-07-28T14:18:09;25.20;49.80
45044;DHT22;30784;48.490;9.688;2023-07-28T14:20:35;25.20;49.60
45044;DHT22;30784;48.490;9.688;2023-07-28T14:23:01;25.20;49.60
45044;DHT22;30784;48.490;9.688;2023-07-28T14:25:27;25.20;49.60
45044;DHT22;30784;48.490;9.688;2023-07-28T14:27:52;25.20;49.70
45044;DHT22;30784;48.490;9.688;2023-07-28T14:30:18;25.10;49.60
45044;DHT22;30784;48.490;9.688;2023-07-28T14:32:44;25.10;49.80
45044;DHT22;30784;48.490;9.688;2023-07-28T14:35:09;25.10;49.80
45044;DHT22;30784;48.490;9.688;2023-07-28T14:37:35;25.10;49.90
45044;DHT22;30784;48.490;9.688;2023-07-28T14:40:00;25.10;49.90
45044;DHT22;30784;48.490;9.688;2023-07-28T14:42:26;25.00;49.70
45044;DHT22;30784;48.490;9.688;2023-07-28T14:44:51;25.00;49.50
45044;DHT22;30784;48.490;9.688;2023-07-28T14:47:17;25.00;49.50
45044;DHT22;30784;48.490;9.688;2023-07-28T14:49:42;25.00;49.40
45044;DHT22;30784;48.490;9.688;2023-07-28T14:52:09;24.90;49.70
45044;DHT22;30784;48.490;9.688;2023-07-28T14:54:34;24.90;49.90
45044;DHT22;30784;48.490;9.688;2023-07-28T14:57:00;24.80;50.10
45044;DHT22;30784;48.490;9.688;2023-07-28T14:59:25;24.70;50.30
45044;DHT22;30784;48.490;9.688;2023-07-28T15:01:51;24.70;50.50
45044;DHT22;30784;48.490;9.688;2023-07-28T15:04:16;24.60;50.60
45044;DHT22;30784;48.490;9.688;2023-07-28T15:06:42;24.50;50.80
45044;DHT22;30784;48.490;9.688;2023-07-28T15:09:08;24.50;50.90
45044;DHT22;30784;48.490;9.688;2023-07-28T15:11:33;24.50;51.00
45044;DHT22;30784;48.490;9.688;2023-07-28T15:13:59;24.40;51.10
45044;DHT22;30784;48.490;9.688;2023-07-28T15:16:24;24.40;51.10
45044;DHT22;30784;48.490;9.688;2023-07-28T15:18:50;24.30;51.20
45044;DHT22;30784;48.490;9.688;2023-07-28T15:21:15;24.30;51.70
45044;DHT22;30784;48.490;9.688;2023-07-28T15:23:42;24.20;51.80
45044;DHT22;30784;48.490;9.688;2023-07-28T15:26:07;24.20;51.70
45044;DHT22;30784;48.490;9.688;2023-07-28T15:28:33;24.20;51.80
45044;DHT22;30784;48.490;9.688;2023-07-28T15:30:59;24.10;51.80
45044;DHT22;30784;48.490;9.688;2023-07-28T15:33:25;24.10;52.10
45044;DHT22;30784;48.490;9.688;2023-07-28T15:35:54;24.10;52.30
45044;DHT22;30784;48.490;9.688;2023-07-28T15:38:20;24.10;52.20
45044;DHT22;30784;48.490;9.688;2023-07-28T15:40:46;24.10;52.00
45044;DHT22;30784;48.490;9.688;2023-07-28T15:43:11;24.10;51.70
45044;DHT22;30784;48.490;9.688;2023-07-28T15:45:37;24.10;51.60
45044;DHT22;30784;48.490;9.688;2023-07-28T15:48:02;24.10;51.60
45044;DHT22;30784;48.490;9.688;2023-07-28T15:50:28;24.10;51.50
45044;DHT22;30784;48.490;9.688;2023-07-28T15:52:54;24.20;51.60